Time;durP1;ratioP1;P1;durP2;ratioP2;P2;SDS_P1;SDS_P2;PMS_P1;PMS_P2;Temp;Humidity;BMP_temperature;BMP_pressure;BME280_temperature;BME280_humidity;BME280_pressure;Samples;Min_cycle;Max_cycle;Signal;HPM_P1;HPM_P2
2020/12/24 00:00:41;;;;;;;4.16;0.73;;;;;;;8.66;83.63;98848.75;2038349;80;20321;-85
2020/12/24 00:03:43;;;;;;;4.40;0.82;;;;;;;8.60;84.20;98853.09;2029961;80;20338;-84
2020/12/24 00:06:44;;;;;;;5.40;0.70;;;;;;;8.53;84.62;98860.03;2031014;80;20320;-84
2020/12/24 00:09:46;;;;;;;7.75;0.82;;;;;;;8.50;84.21;98854.88;2032450;80;20298;-85
2020/12/24 00:12:48;;;;;;;6.32;0.70;;;;;;;8.50;84.16;98866.94;2037614;80;21147;-84
2020/12/24 00:15:50;;;;;;;7.30;1.99;;;;;;;8.45;84.27;98854.91;2036052;80;20467;-84
2020/12/24 00:18:51;;;;;;;6.69;0.89;;;;;;;8.38;84.05;98850.59;2029743;80;20334;-84
2020/12/24 00:21:53;;;;;;;9.31;0.68;;;;;;;8.33;84.30;98857.50;2030360;80;20538;-85
2020/12/24 00:24:55;;;;;;;6.84;0.82;;;;;;;8.29;84.02;98854.94;2032116;80;20273;-84
2020/12/24 00:27:57;;;;;;;3.60;0.80;;;;;;;8.23;82.79;98847.19;2029219;80;20294;-83
2020/12/24 00:30:59;;;;;;;4.35;0.81;;;;;;;8.19;81.74;98848.94;2032503;80;20333;-84
2020/12/24 00:34:02;;;;;;;7.31;0.85;;;;;;;8.13;81.21;98856.72;2097329;69;20400;-85
2020/12/24 00:37:03;;;;;;;6.29;1.13;;;;;;;8.07;81.10;98859.31;2028945;80;20400;-85
2020/12/24 00:40:05;;;;;;;7.64;0.70;;;;;;;8.02;80.71;98874.84;2030929;80;20608;-85
2020/12/24 00:43:07;;;;;;;4.59;1.16;;;;;;;7.97;80.32;98862.78;2035477;80;20350;-85
2020/12/24 00:46:09;;;;;;;4.03;0.79;;;;;;;7.92;80.11;98860.22;2029551;80;20328;-84
2020/12/24 00:49:11;;;;;;;6.05;0.61;;;;;;;7.92;80.01;98864.53;2030539;80;20572;-84
2020/12/24 00:52:13;;;;;;;3.63;1.33;;;;;;;7.86;80.62;98861.09;2031394;80;20340;-84
2020/12/24 00:55:15;;;;;;;2.41;0.51;;;;;;;7.83;80.50;98855.94;2034355;80;20336;-84
2020/12/24 00:58:17;;;;;;;5.15;0.60;;;;;;;7.78;80.67;98847.34;2035811;80;20721;-82
2020/12/24 01:01:18;;;;;;;5.13;0.69;;;;;;;7.73;80.31;98850.78;2030382;80;20338;-83
2020/12/24 01:04:20;;;;;;;6.34;0.69;;;;;;;7.71;80.38;98847.31;2031639;80;20352;-84
2020/12/24 01:07:22;;;;;;;6.99;2.21;;;;;;;7.67;81.34;98846.47;2029369;80;20317;-83
2020/12/24 01:10:23;;;;;;;4.35;0.63;;;;;;;7.62;80.92;98847.34;2032828;80;20293;-83
2020/12/24 01:13:25;;;;;;;5.85;0.74;;;;;;;7.56;80.63;98859.44;2030708;80;20369;-84
2020/12/24 01:16:27;;;;;;;4.94;0.50;;;;;;;7.57;80.93;98848.22;2029637;80;20346;-83
2020/12/24 01:19:32;;;;;;;7.15;0.68;;;;;;;7.53;80.59;98854.25;2027295;80;20320;-85
2020/12/24 01:22:34;;;;;;;8.01;0.70;;;;;;;7.50;80.72;98858.56;2037377;80;20322;-83
2020/12/24 01:25:36;;;;;;;3.83;1.01;;;;;;;7.47;80.47;98864.59;2031879;80;20761;-84
2020/12/24 01:28:38;;;;;;;5.59;0.90;;;;;;;7.47;79.82;98855.97;2028552;80;20301;-84
2020/12/24 01:31:51;;;;;;;5.95;0.79;;;;;;;7.44;79.84;98850.81;2031498;80;20286;-84
2020/12/24 01:34:53;;;;;;;5.20;0.81;;;;;;;7.39;79.72;98848.25;2030106;80;20325;-84
2020/12/24 01:37:54;;;;;;;5.82;0.63;;;;;;;7.36;80.38;98849.94;2030561;80;20309;-83
2020/12/24 01:41:11;;;;;;;5.51;0.85;;;;;;;7.33;80.40;98855.13;2030827;80;20301;-84
2020/12/24 01:44:13;;;;;;;4.22;1.33;;;;;;;7.22;80.36;98852.56;2032525;80;20308;-83
2020/12/24 01:47:43;;;;;;;3.21;0.60;;;;;;;7.15;80.77;98848.22;2030534;80;20309;-83
2020/12/24 01:51:24;;;;;;;4.31;0.60;;;;;;;7.07;80.61;98849.97;2034930;80;20348;-83
2020/12/24 02:25:36;;;;;;;3.66;0.52;;;;;;;6.61;82.02;98801.72;2025942;80;20310;-82
2020/12/24 02:34:42;;;;;;;7.10;0.91;;;;;;;6.57;81.53;98787.09;2027195;80;20328;-83
2020/12/24 02:39:27;;;;;;;6.03;0.84;;;;;;;6.53;81.40;98785.38;2025876;80;20380;-83
2020/12/24 03:24:39;;;;;;;5.57;0.69;;;;;;;6.90;80.15;98708.88;2036193;80;20366;-82
2020/12/24 03:31:57;;;;;;;6.10;1.48;;;;;;;7.04;78.28;98697.66;2033852;80;20341;-83
2020/12/24 03:35:20;;;;;;;6.78;1.08;;;;;;;7.06;77.71;98678.72;2034447;80;20406;-82
2020/12/24 03:38:22;;;;;;;2.35;0.80;;;;;;;7.09;76.83;98681.31;2030401;80;20359;-83
2020/12/24 03:41:24;;;;;;;4.96;1.01;;;;;;;7.11;76.66;98673.56;2032763;80;21102;-82
2020/12/24 03:44:25;;;;;;;6.38;0.65;;;;;;;7.16;76.66;98672.66;2035599;80;20381;-82
2020/12/24 03:51:46;;;;;;;4.19;0.59;;;;;;;7.26;76.52;98665.78;2037983;80;20338;-83
2020/12/24 03:54:48;;;;;;;5.00;0.73;;;;;;;7.32;75.66;98660.59;2037443;80;20328;-83
2020/12/24 03:57:49;;;;;;;7.35;0.74;;;;;;;7.36;75.73;98651.97;2037708;80;20336;-83
2020/12/24 04:00:51;;;;;;;3.35;0.73;;;;;;;7.37;76.22;98645.94;2036453;80;20312;-82
2020/12/24 04:03:53;;;;;;;4.45;0.47;;;;;;;7.37;76.90;98639.94;2033732;80;21170;-82
2020/12/24 04:06:55;;;;;;;2.95;0.70;;;;;;;7.35;76.81;98631.31;2036138;80;20403;-83
2020/12/24 04:09:56;;;;;;;3.56;0.45;;;;;;;7.37;77.08;98630.47;2035955;80;20315;-84
2020/12/24 04:12:58;;;;;;;3.95;0.80;;;;;;;7.37;77.39;98634.75;2042239;80;20316;-85
2020/12/24 04:16:01;;;;;;;4.18;1.00;;;;;;;7.36;78.18;98630.44;2035296;80;20316;-85
2020/12/24 04:19:03;;;;;;;7.40;0.80;;;;;;;7.33;78.61;98622.72;2037077;80;20359;-84
2020/12/24 04:22:05;;;;;;;4.51;1.08;;;;;;;7.31;79.22;98627.88;2037303;80;20329;-84
2020/12/24 04:25:07;;;;;;;3.26;0.59;;;;;;;7.27;79.51;98631.34;2037027;80;20321;-84
2020/12/24 04:28:08;;;;;;;3.58;0.63;;;;;;;7.26;79.32;98632.22;2037264;80;20855;-83
2020/12/24 04:31:10;;;;;;;6.06;0.57;;;;;;;7.27;79.86;98629.63;2033801;80;20381;-83
2020/12/24 04:34:12;;;;;;;2.88;0.61;;;;;;;7.25;80.59;98633.06;2035844;80;20377;-82
2020/12/24 04:37:17;;;;;;;5.96;0.75;;;;;;;7.21;80.48;98627.06;2035365;80;20304;-82
2020/12/24 04:40:19;;;;;;;6.34;1.08;;;;;;;7.20;81.17;98627.94;2030716;80;20491;-80
2020/12/24 04:43:21;;;;;;;6.01;0.71;;;;;;;7.20;81.54;98621.91;2032337;80;20340;-83
2020/12/24 04:46:27;;;;;;;6.35;0.90;;;;;;;7.14;82.20;98625.34;2034399;80;20337;-83
2020/12/24 04:49:30;;;;;;;5.28;0.75;;;;;;;7.08;82.58;98612.47;2035720;80;20334;-82
2020/12/24 04:52:34;;;;;;;3.47;0.68;;;;;;;7.09;82.81;98603.88;2029638;80;20351;-82
2020/12/24 04:55:36;;;;;;;4.47;0.64;;;;;;;7.05;83.12;98597.00;2031322;80;20327;-82
2020/12/24 04:58:42;;;;;;;2.64;0.77;;;;;;;7.03;82.94;98605.63;2032651;80;20349;-81
2020/12/24 05:01:48;;;;;;;3.28;0.68;;;;;;;6.98;83.37;98592.72;2029922;80;20363;-84
2020/12/24 05:04:54;;;;;;;5.18;0.61;;;;;;;6.95;83.48;98603.03;2032996;80;20324;-82
2020/12/24 05:07:56;;;;;;;4.66;0.57;;;;;;;6.95;83.85;98596.16;2032844;80;20785;-81
2020/12/24 05:11:03;;;;;;;5.96;0.56;;;;;;;6.93;84.06;98600.47;2034090;80;20323;-82
2020/12/24 05:14:18;;;;;;;4.35;0.38;;;;;;;6.91;84.29;98585.84;2034894;80;20347;-83
2020/12/24 05:17:43;;;;;;;4.50;1.05;;;;;;;6.88;83.76;98596.19;2025350;80;20339;-83
2020/12/24 05:20:46;;;;;;;5.93;0.73;;;;;;;6.82;84.32;98586.75;2035057;80;20359;-82
2020/12/24 05:23:48;;;;;;;4.34;0.63;;;;;;;6.82;84.50;98578.13;2032703;80;20344;-82
2020/12/24 05:26:51;;;;;;;4.72;0.70;;;;;;;6.77;84.57;98574.69;2031541;80;20332;-82
2020/12/24 05:29:53;;;;;;;2.13;0.61;;;;;;;6.76;85.02;98583.31;2031272;80;20398;-83
2020/12/24 05:32:54;;;;;;;2.72;0.40;;;;;;;6.75;85.29;98581.59;2034278;79;20292;-81
2020/12/24 05:36:22;;;;;;;3.67;0.40;;;;;;;6.73;85.17;98584.19;2028656;80;20360;-81
2020/12/24 05:39:29;;;;;;;4.86;1.26;;;;;;;6.74;85.25;98585.03;2030285;80;20461;-82
2020/12/24 05:42:31;;;;;;;3.13;0.80;;;;;;;6.73;85.41;98578.16;2035365;80;20337;-81
2020/12/24 05:45:33;;;;;;;2.13;0.45;;;;;;;6.72;85.64;98576.44;2032403;80;20351;-82
2020/12/24 05:48:35;;;;;;;4.97;1.31;;;;;;;6.67;85.38;98584.19;2035386;80;20375;-82
2020/12/24 05:56:49;;;;;;;3.85;0.40;;;;;;;6.61;85.24;98585.06;2042708;69;20312;-83
2020/12/24 06:01:03;;;;;;;4.68;0.57;;;;;;;6.62;85.54;98589.34;2037319;80;20320;-83
2020/12/24 06:05:39;;;;;;;5.24;1.31;;;;;;;6.65;85.82;98593.66;2033213;80;20361;-83
2020/12/24 06:09:59;;;;;;;2.20;0.46;;;;;;;6.63;86.19;98588.47;2038445;68;20439;-84
2020/12/24 06:14:35;;;;;;;2.72;0.40;;;;;;;6.58;86.35;98581.63;2039800;69;20363;-83
2020/12/24 06:26:40;;;;;;;4.74;0.64;;;;;;;6.55;87.18;98576.47;2043879;69;20489;-84
2020/12/24 06:35:54;;;;;;;2.39;0.68;;;;;;;6.49;87.32;98574.78;2032764;80;20314;-84
2020/12/24 06:47:22;;;;;;;3.17;0.63;;;;;;;6.33;87.42;98586.81;2048537;69;20361;-83
2020/12/24 06:53:46;;;;;;;2.87;0.40;;;;;;;6.31;87.02;98583.38;2043410;69;20754;-81
2020/12/24 07:00:23;;;;;;;1.02;0.30;;;;;;;6.35;87.34;98577.34;2047089;69;20391;-80
2020/12/24 07:03:49;;;;;;;0.96;0.40;;;;;;;6.39;87.62;98580.78;2032015;80;20339;-81
2020/12/24 07:07:36;;;;;;;2.67;0.30;;;;;;;6.44;87.59;98584.22;2035420;80;20319;-83
2020/12/24 07:11:06;;;;;;;1.08;0.32;;;;;;;6.44;87.50;98573.91;2033354;80;20308;-84
2020/12/24 07:14:30;;;;;;;1.84;0.34;;;;;;;6.42;87.59;98575.63;2037760;80;20337;-83
2020/12/24 07:17:36;;;;;;;1.76;0.40;;;;;;;6.47;87.55;98580.81;2036333;80;20298;-83
2020/12/24 07:20:39;;;;;;;0.79;0.30;;;;;;;6.45;87.55;98575.63;2034833;80;20344;-81
2020/12/24 07:23:41;;;;;;;1.50;0.30;;;;;;;6.46;87.50;98579.91;2022955;80;20332;-78
2020/12/24 07:26:43;;;;;;;2.72;0.40;;;;;;;6.45;87.75;98567.88;2021799;80;20383;-78
2020/12/24 07:29:46;;;;;;;1.84;0.63;;;;;;;6.44;87.71;98588.50;2024286;80;20335;-76
2020/12/24 07:32:52;;;;;;;1.34;0.30;;;;;;;6.46;87.80;98574.75;2026013;80;20365;-80
2020/12/24 07:35:54;;;;;;;5.41;0.68;;;;;;;6.51;88.01;98577.34;2025612;80;20339;-78
2020/12/24 07:38:59;;;;;;;0.99;0.30;;;;;;;6.53;88.22;98583.34;2026421;80;20336;-82
2020/12/24 07:42:01;;;;;;;2.44;0.81;;;;;;;6.52;87.94;98579.91;2026029;80;20328;-81
2020/12/24 07:45:04;;;;;;;1.74;0.20;;;;;;;6.54;88.17;98587.66;2028568;80;20389;-79
2020/12/24 07:48:25;;;;;;;1.80;0.31;;;;;;;6.59;88.50;98596.22;2028800;80;20373;-78
2020/12/24 07:51:26;;;;;;;1.75;0.26;;;;;;;6.60;88.40;98598.81;2025275;80;20323;-80
2020/12/24 07:54:30;;;;;;;1.99;0.30;;;;;;;6.64;88.58;98594.50;2025032;79;20396;-81
2020/12/24 07:57:32;;;;;;;1.51;0.20;;;;;;;6.62;88.47;98602.25;2024015;80;20357;-78
2020/12/24 08:00:44;;;;;;;2.26;0.80;;;;;;;6.63;88.59;98597.94;2024394;80;20378;-81
2020/12/24 08:03:56;;;;;;;0.81;0.22;;;;;;;6.62;88.64;98591.06;2025097;79;20351;-80
2020/12/24 08:06:58;;;;;;;0.98;0.21;;;;;;;6.66;88.78;98598.81;2023650;80;20321;-80
2020/12/24 08:10:09;;;;;;;0.84;0.25;;;;;;;6.69;88.99;98603.13;2022801;80;20180;-79
2020/12/24 08:13:11;;;;;;;1.16;0.19;;;;;;;6.74;89.07;98609.13;2021357;80;20340;-77
2020/12/24 08:16:13;;;;;;;0.47;0.20;;;;;;;6.77;89.08;98610.81;2024715;80;20782;-77
2020/12/24 08:19:25;;;;;;;2.17;0.20;;;;;;;6.77;89.07;98610.81;2022899;80;20760;-79
2020/12/24 08:22:42;;;;;;;1.65;0.30;;;;;;;6.81;89.16;98613.38;2022872;80;20339;-79
2020/12/24 08:25:52;;;;;;;1.40;0.20;;;;;;;6.80;89.14;98618.56;2020423;80;20365;-79
2020/12/24 08:28:56;;;;;;;1.83;0.20;;;;;;;6.86;89.44;98628.88;2021786;80;20424;-78
2020/12/24 08:31:59;;;;;;;2.67;0.30;;;;;;;6.85;89.54;98628.03;2022062;80;20320;-78
2020/12/24 08:35:08;;;;;;;1.17;0.20;;;;;;;6.85;89.57;98622.88;2020774;80;20851;-78
2020/12/24 08:38:14;;;;;;;0.88;0.21;;;;;;;6.89;89.58;98640.06;2022344;80;20353;-77
2020/12/24 08:41:22;;;;;;;1.17;0.30;;;;;;;6.93;89.60;98644.34;2021074;80;21135;-76
2020/12/24 08:44:25;;;;;;;0.47;0.19;;;;;;;6.95;89.60;98645.19;2021578;80;20808;-78
2020/12/24 08:47:37;;;;;;;2.50;0.24;;;;;;;6.99;89.69;98648.63;2021819;80;20354;-78
2020/12/24 08:50:40;;;;;;;2.51;0.20;;;;;;;7.03;89.59;98650.34;2021402;80;20340;-77
2020/12/24 08:53:42;;;;;;;0.32;0.20;;;;;;;7.00;89.58;98652.91;2024459;79;20335;-77
2020/12/24 08:56:46;;;;;;;0.65;0.20;;;;;;;7.04;89.76;98654.66;2021595;80;20381;-77
2020/12/24 08:59:59;;;;;;;0.51;0.21;;;;;;;7.06;89.64;98665.84;2021813;80;20332;-78
2020/12/24 09:03:00;;;;;;;0.98;0.20;;;;;;;7.09;89.70;98658.06;2021621;80;20385;-77
2020/12/24 09:06:09;;;;;;;0.89;0.20;;;;;;;7.17;89.84;98661.47;2020635;80;20889;-78
2020/12/24 09:09:24;;;;;;;0.50;0.20;;;;;;;7.29;89.88;98665.75;2020663;80;20335;-77
2020/12/24 09:12:26;;;;;;;0.34;0.10;;;;;;;7.40;89.75;98666.59;2021850;80;20301;-76
2020/12/24 09:15:29;;;;;;;0.10;0.10;;;;;;;7.46;89.53;98663.97;2021124;80;20336;-77
2020/12/24 09:18:30;;;;;;;0.51;0.30;;;;;;;7.54;89.22;98669.09;2021137;80;21122;-78
2020/12/24 09:21:33;;;;;;;1.45;0.19;;;;;;;7.58;89.15;98665.66;2021248;80;20324;-79
2020/12/24 09:24:48;;;;;;;0.59;0.10;;;;;;;7.62;89.04;98679.44;2021176;80;20353;-77
2020/12/24 09:27:50;;;;;;;0.10;0.10;;;;;;;7.65;88.81;98685.44;2021948;80;20350;-76
2020/12/24 09:30:54;;;;;;;0.10;0.10;;;;;;;7.65;88.54;98688.00;2021267;80;20352;-77
2020/12/24 09:33:56;;;;;;;0.38;0.10;;;;;;;7.68;88.69;98695.75;2020746;80;20336;-77
2020/12/24 09:36:57;;;;;;;0.10;0.10;;;;;;;7.68;88.59;98693.16;2021938;80;20331;-78
2020/12/24 09:39:59;;;;;;;0.52;0.16;;;;;;;7.70;88.78;98706.06;2021662;80;20737;-76
2020/12/24 09:43:00;;;;;;;0.21;0.10;;;;;;;7.74;89.17;98706.09;2021493;80;20833;-77
2020/12/24 09:46:02;;;;;;;0.00;0.00;;;;;;;7.80;89.15;98710.34;2021320;80;20383;-78
2020/12/24 09:49:06;;;;;;;2.88;0.51;;;;;;;7.86;88.84;98712.91;2021961;80;20324;-78
2020/12/24 09:52:07;;;;;;;0.10;0.09;;;;;;;7.85;88.60;98712.03;2021087;80;20323;-77
2020/12/24 09:55:13;;;;;;;0.17;0.04;;;;;;;7.85;88.22;98714.63;2021511;80;20381;-77
2020/12/24 09:58:15;;;;;;;0.10;0.10;;;;;;;7.85;87.92;98716.34;2021233;80;20328;-75
2020/12/24 10:01:17;;;;;;;0.46;0.10;;;;;;;7.79;87.66;98727.59;2023284;80;20336;-77
2020/12/24 10:04:18;;;;;;;0.17;0.10;;;;;;;7.74;87.70;98737.09;2020713;80;20409;-77
2020/12/24 10:07:23;;;;;;;0.11;0.10;;;;;;;7.77;87.84;98734.50;2020712;80;20312;-79
2020/12/24 10:10:29;;;;;;;0.09;0.09;;;;;;;7.79;87.91;98742.22;2020997;80;20335;-77
2020/12/24 10:13:30;;;;;;;1.55;0.10;;;;;;;7.84;88.17;98746.50;2020464;80;20179;-77
2020/12/24 10:16:32;;;;;;;0.10;0.10;;;;;;;7.89;88.09;98744.75;2021407;80;20350;-76
2020/12/24 10:19:33;;;;;;;0.06;0.06;;;;;;;7.87;87.43;98749.06;2022057;80;20363;-76
2020/12/24 10:22:35;;;;;;;0.21;0.10;;;;;;;7.85;87.04;98743.06;2021163;80;20390;-77
2020/12/24 10:25:37;;;;;;;0.10;0.10;;;;;;;7.83;86.87;98747.38;2022648;80;20414;-76
2020/12/24 10:28:39;;;;;;;1.29;0.10;;;;;;;7.86;86.89;98746.50;2023404;80;20328;-77
2020/12/24 10:31:43;;;;;;;0.15;0.10;;;;;;;7.86;86.81;98737.03;2025446;80;20558;-78
2020/12/24 10:34:45;;;;;;;0.10;0.10;;;;;;;7.87;86.76;98743.91;2023866;80;20417;-78
2020/12/24 10:37:46;;;;;;;0.10;0.10;;;;;;;7.92;86.84;98748.22;2022543;80;20349;-78
2020/12/24 10:40:48;;;;;;;0.56;0.10;;;;;;;8.00;86.91;98756.78;2022788;80;20365;-78
2020/12/24 10:43:49;;;;;;;0.05;0.05;;;;;;;8.04;86.63;98758.50;2022138;80;20392;-77
2020/12/24 10:46:55;;;;;;;0.50;0.10;;;;;;;8.07;86.01;98753.31;2022010;80;20371;-78
2020/12/24 10:49:57;;;;;;;0.20;0.10;;;;;;;8.08;85.38;98750.72;2023456;80;20434;-79
2020/12/24 10:52:58;;;;;;;0.10;0.10;;;;;;;8.06;84.96;98742.09;2023473;80;20349;-77
2020/12/24 10:56:01;;;;;;;0.17;0.14;;;;;;;8.06;84.96;98746.41;2024706;80;20338;-79
2020/12/24 10:59:02;;;;;;;0.10;0.10;;;;;;;8.01;84.90;98751.59;2025123;80;20841;-79
2020/12/24 11:02:04;;;;;;;0.00;0.00;;;;;;;7.98;84.53;98746.47;2024581;80;20356;-80
2020/12/24 11:05:06;;;;;;;0.47;0.10;;;;;;;7.97;84.20;98733.53;2024346;80;20361;-78
2020/12/24 11:10:39;;;;;;;0.81;0.10;;;;;;;8.08;84.52;98747.28;2071539;77;20304;-81
2020/12/24 11:13:44;;;;;;;0.10;0.10;;;;;;;8.00;83.98;98736.97;2064503;78;20347;-80
2020/12/24 11:16:46;;;;;;;0.10;0.10;;;;;;;8.04;84.07;98737.81;2062590;78;20353;-81
2020/12/24 11:19:48;;;;;;;0.19;0.10;;;;;;;8.02;84.10;98736.97;2067795;78;20301;-81
2020/12/24 11:22:50;;;;;;;0.10;0.10;;;;;;;8.01;83.74;98738.69;2063500;78;20326;-80
2020/12/24 11:26:02;;;;;;;0.44;0.10;;;;;;;7.99;83.47;98747.31;2061937;78;20442;-81
2020/12/24 11:29:05;;;;;;;0.20;0.20;;;;;;;7.92;83.94;98756.84;2069034;78;20350;-82
2020/12/24 11:32:07;;;;;;;0.81;0.10;;;;;;;7.88;83.80;98758.56;2066035;78;20874;-80
2020/12/24 11:35:12;;;;;;;1.54;0.20;;;;;;;7.81;83.58;98762.03;2058276;78;20792;-79
2020/12/24 11:38:14;;;;;;;0.56;0.10;;;;;;;7.76;83.58;98757.75;2058771;78;20346;-81
2020/12/24 11:41:18;;;;;;;0.10;0.10;;;;;;;7.67;83.29;98757.78;2067224;78;20369;-83
2020/12/24 11:44:21;;;;;;;0.39;0.10;;;;;;;7.63;83.30;98753.47;2066415;78;21157;-82
2020/12/24 11:47:23;;;;;;;0.20;0.14;;;;;;;7.63;83.35;98756.06;2062974;78;20324;-80
2020/12/24 11:50:25;;;;;;;0.10;0.10;;;;;;;7.64;83.69;98750.03;2062019;78;20361;-83
2020/12/24 11:53:26;;;;;;;0.10;0.10;;;;;;;7.62;83.42;98746.59;2067290;78;20842;-81
2020/12/24 11:56:28;;;;;;;0.43;0.20;;;;;;;7.61;83.38;98752.63;2067816;78;20350;-83
2020/12/24 11:59:29;;;;;;;0.45;0.25;;;;;;;7.65;83.96;98739.69;2067032;78;20758;-80
2020/12/24 12:02:31;;;;;;;0.43;0.20;;;;;;;7.73;84.52;98743.13;2066088;78;20320;-80
2020/12/24 12:05:33;;;;;;;0.29;0.20;;;;;;;7.79;84.33;98744.81;2069368;78;20365;-81
2020/12/24 12:08:35;;;;;;;0.10;0.10;;;;;;;7.87;84.12;98730.97;2062278;78;20325;-80
2020/12/24 12:11:37;;;;;;;0.31;0.20;;;;;;;7.98;83.81;98743.00;2062220;78;20332;-80
2020/12/24 12:14:38;;;;;;;0.63;0.10;;;;;;;8.01;82.73;98743.00;2059565;78;20751;-80
2020/12/24 12:17:40;;;;;;;1.27;0.20;;;;;;;8.06;82.65;98736.94;2059440;78;20662;-80
2020/12/24 12:20:41;;;;;;;0.56;0.20;;;;;;;8.14;83.16;98734.31;2059130;78;20318;-78
2020/12/24 12:23:43;;;;;;;0.65;0.11;;;;;;;8.25;82.80;98736.84;2058308;78;20318;-80
2020/12/24 12:26:45;;;;;;;0.49;0.19;;;;;;;8.29;81.99;98729.06;2056324;78;20337;-80
2020/12/24 12:29:47;;;;;;;0.39;0.10;;;;;;;8.31;81.77;98729.91;2054372;78;20858;-78
2020/12/24 12:32:48;;;;;;;0.59;0.14;;;;;;;8.36;82.08;98725.59;2051378;78;20321;-79
2020/12/24 12:35:50;;;;;;;0.20;0.10;;;;;;;8.37;81.58;98723.88;2051313;78;20325;-78
2020/12/24 12:38:51;;;;;;;0.10;0.10;;;;;;;8.41;81.22;98725.56;2051370;78;20721;-78
2020/12/24 12:41:53;;;;;;;0.24;0.10;;;;;;;8.42;81.73;98717.78;2051369;78;20333;-78
2020/12/24 12:44:55;;;;;;;0.38;0.19;;;;;;;8.41;81.60;98710.03;2050858;78;20829;-78
2020/12/24 12:47:57;;;;;;;0.10;0.10;;;;;;;8.42;81.48;98709.16;2054804;78;20866;-79
2020/12/24 12:51:00;;;;;;;0.13;0.10;;;;;;;8.43;81.35;98711.75;2057852;78;20333;-80
2020/12/24 12:54:03;;;;;;;0.10;0.10;;;;;;;8.42;80.97;98711.75;2052693;78;20513;-80
2020/12/24 12:57:07;;;;;;;0.93;0.16;;;;;;;8.44;81.17;98702.28;2051337;78;20898;-79
2020/12/24 13:00:10;;;;;;;0.10;0.10;;;;;;;8.42;80.78;98706.56;2058492;78;20317;-79
2020/12/24 13:03:11;;;;;;;0.10;0.10;;;;;;;8.41;81.12;98703.13;2051050;78;20354;-78
2020/12/24 13:06:22;;;;;;;1.80;0.38;;;;;;;8.42;81.02;98715.19;2051212;78;20363;-79
2020/12/24 13:09:24;;;;;;;0.43;0.10;;;;;;;8.42;80.73;98710.03;2051093;78;20351;-79
2020/12/24 13:12:25;;;;;;;0.10;0.10;;;;;;;8.46;81.49;98710.88;2055657;78;20860;-79
2020/12/24 13:15:27;;;;;;;0.17;0.10;;;;;;;8.43;81.56;98706.56;2051365;78;21199;-78
2020/12/24 13:18:29;;;;;;;0.51;0.20;;;;;;;8.44;81.42;98708.31;2051538;78;20329;-79
2020/12/24 13:21:30;;;;;;;0.20;0.20;;;;;;;8.41;81.55;98705.72;2051790;78;20313;-79
2020/12/24 13:24:32;;;;;;;1.49;0.70;;;;;;;8.41;81.59;98705.72;2050323;78;20812;-78
2020/12/24 13:27:34;;;;;;;1.59;0.40;;;;;;;8.40;81.66;98705.72;2051649;78;20908;-78
2020/12/24 13:30:36;;;;;;;0.34;0.20;;;;;;;8.37;81.56;98701.44;2051308;78;21216;-78
2020/12/24 13:33:38;;;;;;;0.50;0.10;;;;;;;8.36;81.48;98702.31;2051549;78;21221;-79
2020/12/24 13:36:40;;;;;;;0.91;0.20;;;;;;;8.36;81.34;98706.63;2051081;78;20866;-77
2020/12/24 13:39:42;;;;;;;0.39;0.19;;;;;;;8.35;81.60;98699.75;2051215;78;21092;-78
2020/12/24 13:42:43;;;;;;;1.44;0.76;;;;;;;8.32;82.09;98694.56;2052227;78;20333;-78
2020/12/24 13:45:45;;;;;;;0.82;0.30;;;;;;;8.27;82.62;98692.00;2051345;78;20337;-78
2020/12/24 13:48:46;;;;;;;0.15;0.11;;;;;;;8.25;82.70;98688.56;2051355;78;20362;-78
2020/12/24 13:51:49;;;;;;;0.46;0.29;;;;;;;8.21;82.67;98697.19;2051566;78;20318;-78
2020/12/24 13:54:52;;;;;;;0.40;0.30;;;;;;;8.16;83.12;98686.91;2051341;78;20336;-79
2020/12/24 13:57:54;;;;;;;0.30;0.20;;;;;;;8.12;83.14;98694.69;2052426;78;20325;-79
2020/12/24 14:00:55;;;;;;;0.79;0.25;;;;;;;8.06;83.68;98695.56;2053855;78;20333;-81
2020/12/24 14:03:57;;;;;;;0.65;0.20;;;;;;;8.03;83.93;98686.97;2054600;78;20379;-79
2020/12/24 14:06:59;;;;;;;1.70;0.20;;;;;;;8.01;83.85;98691.28;2053384;78;20358;-80
2020/12/24 14:10:01;;;;;;;0.40;0.35;;;;;;;8.00;83.85;98692.16;2052390;78;20336;-79
2020/12/24 14:13:04;;;;;;;0.30;0.29;;;;;;;7.99;84.00;98688.72;2051233;78;20324;-79
2020/12/24 14:16:05;;;;;;;1.33;0.30;;;;;;;7.97;84.39;98687.88;2050537;78;20353;-79
2020/12/24 14:19:07;;;;;;;0.40;0.29;;;;;;;7.94;84.56;98687.03;2051304;78;20547;-81
2020/12/24 14:22:09;;;;;;;2.31;0.35;;;;;;;7.92;84.78;98687.06;2056248;78;21127;-81
2020/12/24 14:26:00;;;;;;;0.54;0.35;;;;;;;7.91;84.69;98681.88;2062697;78;20416;-87
2020/12/24 14:29:36;;;;;;;0.30;0.30;;;;;;;7.88;84.54;98691.34;2129820;68;20312;-87
2020/12/24 14:32:38;;;;;;;0.80;0.30;;;;;;;7.88;84.28;98683.59;2042142;79;20392;-84
2020/12/24 14:35:44;;;;;;;0.20;0.20;;;;;;;7.88;84.44;98683.59;2035516;80;20381;-82
2020/12/24 14:38:46;;;;;;;0.20;0.20;;;;;;;7.89;84.38;98692.22;2032051;80;20361;-82
2020/12/24 14:41:48;;;;;;;0.50;0.30;;;;;;;7.91;84.50;98694.81;2031083;80;20373;-82
2020/12/24 14:44:49;;;;;;;0.35;0.25;;;;;;;7.89;84.80;98697.38;2032269;80;20336;-80
2020/12/24 14:47:51;;;;;;;0.30;0.30;;;;;;;7.86;85.08;98687.91;2027441;80;20316;-81
2020/12/24 14:50:54;;;;;;;0.40;0.40;;;;;;;7.83;85.40;98697.41;2027958;80;20381;-80
2020/12/24 14:53:56;;;;;;;0.30;0.30;;;;;;;7.80;85.76;98698.28;2029492;80;20333;-81
2020/12/24 14:57:00;;;;;;;1.26;0.30;;;;;;;7.77;85.87;98703.47;2032767;80;20397;-81
2020/12/24 15:00:04;;;;;;;0.60;0.60;;;;;;;7.77;86.08;98710.38;2027931;80;20409;-81
2020/12/24 15:03:08;;;;;;;1.33;0.60;;;;;;;7.73;86.40;98706.09;2023981;80;20320;-79
2020/12/24 15:06:17;;;;;;;0.26;0.20;;;;;;;7.68;86.23;98703.50;2019953;80;20548;-80
2020/12/24 15:09:19;;;;;;;0.32;0.30;;;;;;;7.62;86.17;98713.88;2022879;80;20357;-82
2020/12/24 15:12:21;;;;;;;0.86;0.40;;;;;;;7.52;85.92;98714.75;2023605;80;20718;-81
2020/12/24 15:15:22;;;;;;;0.90;0.70;;;;;;;7.47;86.02;98716.50;2021636;80;20344;-80
2020/12/24 15:18:24;;;;;;;0.30;0.30;;;;;;;7.43;86.34;98707.91;2020825;80;20327;-79
2020/12/24 15:21:26;;;;;;;0.54;0.43;;;;;;;7.41;86.52;98712.22;2020623;80;20327;-80
2020/12/24 15:24:27;;;;;;;0.75;0.60;;;;;;;7.37;86.50;98714.81;2019448;80;20327;-79
2020/12/24 15:27:29;;;;;;;0.76;0.40;;;;;;;7.33;86.79;98713.94;2022221;80;20332;-79
2020/12/24 15:30:31;;;;;;;0.24;0.24;;;;;;;7.32;86.95;98716.53;2020317;80;20331;-84
2020/12/24 15:33:32;;;;;;;0.20;0.20;;;;;;;7.31;86.83;98717.41;2019128;80;20344;-81
2020/12/24 15:36:34;;;;;;;0.61;0.61;;;;;;;7.21;86.38;98712.28;2019980;80;20373;-79
2020/12/24 15:39:36;;;;;;;0.30;0.30;;;;;;;7.21;86.53;98716.56;2018717;80;20320;-79
2020/12/24 15:42:38;;;;;;;0.13;0.13;;;;;;;7.16;86.51;98715.69;2026377;80;20426;-81
2020/12/24 15:45:40;;;;;;;1.61;0.30;;;;;;;7.11;86.49;98713.13;2027145;80;20323;-81
2020/12/24 15:48:42;;;;;;;0.21;0.20;;;;;;;7.08;86.34;98714.88;2026827;80;20315;-81
2020/12/24 15:51:45;;;;;;;1.60;0.22;;;;;;;7.04;86.44;98714.03;2022497;80;20327;-80
2020/12/24 15:54:46;;;;;;;0.20;0.20;;;;;;;7.01;86.56;98720.91;2021577;80;20345;-80
2020/12/24 15:57:49;;;;;;;1.46;0.73;;;;;;;6.95;86.61;98717.44;2022602;80;20725;-80
2020/12/24 16:00:52;;;;;;;0.39;0.31;;;;;;;6.93;86.55;98719.19;2022749;80;20342;-84
2020/12/24 16:03:55;;;;;;;1.38;0.32;;;;;;;6.92;86.32;98734.66;2022497;80;20320;-80
2020/12/24 16:06:57;;;;;;;0.20;0.20;;;;;;;6.84;85.79;98726.09;2022511;80;20354;-79
2020/12/24 16:10:00;;;;;;;0.85;0.20;;;;;;;6.75;85.50;98751.88;2021718;80;20327;-79
2020/12/24 16:13:03;;;;;;;0.20;0.10;;;;;;;6.45;83.20;98786.19;2032293;79;20312;-80
2020/12/24 16:16:12;;;;;;;;;;;;;;;5.98;80.52;98810.97;2021169;80;20446;-79
2020/12/24 16:19:14;;;;;;;0.10;0.10;;;;;;;5.70;80.56;98794.47;2020829;80;20092;-77
2020/12/24 16:22:16;;;;;;;1.16;0.20;;;;;;;5.46;80.21;98818.38;2022480;80;20198;-81
2020/12/24 16:25:17;;;;;;;0.20;0.20;;;;;;;5.35;81.50;98832.88;2021469;80;20364;-77
2020/12/24 16:28:19;;;;;;;0.45;0.36;;;;;;;5.16;81.49;98837.03;2022105;80;20332;-79
2020/12/24 16:31:21;;;;;;;0.15;0.10;;;;;;;4.96;81.11;98846.28;2021140;80;20971;-78
2020/12/24 16:34:23;;;;;;;0.24;0.24;;;;;;;4.70;81.46;98850.34;2021099;80;20320;-78
2020/12/24 16:37:25;;;;;;;0.26;0.26;;;;;;;4.69;82.83;98848.59;2021962;80;20880;-78
2020/12/24 16:40:27;;;;;;;0.20;0.20;;;;;;;4.60;82.87;98840.78;2021143;80;20320;-77
2020/12/24 16:43:30;;;;;;;0.20;0.20;;;;;;;4.52;83.41;98861.28;2021181;80;20353;-81
2020/12/24 16:46:31;;;;;;;0.20;0.20;;;;;;;4.25;82.03;98856.66;2030394;80;20327;-80
2020/12/24 16:49:38;;;;;;;0.10;0.10;;;;;;;4.16;82.96;98866.84;2022452;80;20438;-77